Time;durP1;ratioP1;P1;durP2;ratioP2;P2;SDS_P1;SDS_P2;PMS_P1;PMS_P2;Temp;Humidity;BMP_temperature;BMP_pressure;BME280_temperature;BME280_humidity;BME280_pressure;Samples;Min_cycle;Max_cycle;Signal;HPM_P1;HPM_P2
2021/12/03 00:02:04;;;;;;;3.67;1.77;;;0.80;99.90;;;;;;5032199;28;20033;-80
2021/12/03 00:04:30;;;;;;;2.60;1.50;;;0.70;99.90;;;;;;5033719;28;20055;-80
2021/12/03 00:06:56;;;;;;;3.05;1.70;;;0.80;99.90;;;;;;5033741;28;20051;-80
2021/12/03 00:09:22;;;;;;;3.05;1.80;;;0.80;99.90;;;;;;5033449;28;20380;-80
2021/12/03 00:11:48;;;;;;;2.35;1.30;;;0.70;99.90;;;;;;5032629;28;20029;-80
2021/12/03 00:14:13;;;;;;;7.57;2.70;;;0.70;99.90;;;;;;5033633;28;20385;-80
2021/12/03 00:16:39;;;;;;;5.63;3.22;;;0.60;99.90;;;;;;5034523;28;20029;-80
2021/12/03 00:19:05;;;;;;;5.78;3.03;;;0.60;99.90;;;;;;5032650;28;20025;-80
2021/12/03 00:21:31;;;;;;;6.25;2.97;;;0.60;99.90;;;;;;5033347;28;20496;-80
2021/12/03 00:23:57;;;;;;;5.68;2.90;;;0.50;99.90;;;;;;5033475;28;20028;-80
2021/12/03 00:26:22;;;;;;;5.65;2.30;;;0.60;99.90;;;;;;5033616;28;20018;-80
2021/12/03 00:28:48;;;;;;;4.65;2.30;;;0.60;99.90;;;;;;5033369;28;20021;-81
2021/12/03 00:31:14;;;;;;;4.60;2.40;;;0.60;99.90;;;;;;5033455;28;20028;-80
2021/12/03 00:33:41;;;;;;;2.92;1.90;;;0.60;99.90;;;;;;5033494;28;20539;-80
2021/12/03 00:36:09;;;;;;;4.05;2.35;;;0.60;99.90;;;;;;5032248;28;20496;-80
2021/12/03 00:38:40;;;;;;;5.35;2.47;;;0.60;99.90;;;;;;5033404;28;20447;-80
2021/12/03 00:41:13;;;;;;;3.72;2.03;;;0.60;99.90;;;;;;5033454;28;20393;-81
2021/12/03 00:43:43;;;;;;;4.50;2.42;;;0.60;99.90;;;;;;5032132;28;20026;-80
2021/12/03 00:46:11;;;;;;;3.70;2.33;;;0.60;99.90;;;;;;5033956;28;20026;-80
2021/12/03 00:48:38;;;;;;;4.78;2.47;;;0.50;99.90;;;;;;5033354;28;20013;-80
2021/12/03 00:51:04;;;;;;;3.95;2.35;;;0.60;99.90;;;;;;5032224;28;20103;-81
2021/12/03 00:53:30;;;;;;;4.70;2.42;;;0.60;99.90;;;;;;5033291;28;20026;-80
2021/12/03 00:55:56;;;;;;;6.25;2.63;;;0.60;99.90;;;;;;5032156;28;20029;-80
2021/12/03 00:58:21;;;;;;;6.18;2.58;;;0.60;99.90;;;;;;5032246;28;20022;-81
2021/12/03 01:00:47;;;;;;;5.85;2.63;;;0.60;99.90;;;;;;5033339;28;20025;-81
2021/12/03 01:03:13;;;;;;;5.68;2.70;;;0.60;99.90;;;;;;5032690;28;20049;-80
2021/12/03 01:05:38;;;;;;;6.03;2.50;;;0.60;99.90;;;;;;5031849;28;20057;-81
2021/12/03 01:08:04;;;;;;;3.55;2.38;;;0.60;99.90;;;;;;5032100;28;20022;-80
2021/12/03 01:10:30;;;;;;;3.08;1.92;;;0.70;99.90;;;;;;5031819;28;20025;-81
2021/12/03 01:12:56;;;;;;;4.90;2.38;;;0.60;99.90;;;;;;5033001;28;20017;-81
2021/12/03 01:15:26;;;;;;;4.47;2.05;;;0.60;99.90;;;;;;5032151;28;20029;-80
2021/12/03 01:17:52;;;;;;;3.35;1.90;;;0.60;99.90;;;;;;5031833;28;20033;-81
2021/12/03 01:20:19;;;;;;;5.18;2.08;;;0.60;99.90;;;;;;5031687;28;20028;-81
2021/12/03 01:22:47;;;;;;;3.83;1.65;;;0.60;99.90;;;;;;5031509;28;20080;-80
2021/12/03 01:25:15;;;;;;;4.75;2.00;;;0.60;99.90;;;;;;5035202;28;20029;-80
2021/12/03 01:27:40;;;;;;;3.22;1.55;;;0.60;99.90;;;;;;5036692;28;20018;-80
2021/12/03 01:30:10;;;;;;;2.47;1.40;;;0.60;99.90;;;;;;5034983;28;20091;-80
2021/12/03 01:32:36;;;;;;;2.90;1.70;;;0.50;99.90;;;;;;5035007;28;20095;-80
2021/12/03 01:35:03;;;;;;;3.00;1.70;;;0.50;99.90;;;;;;5036357;28;20033;-80
2021/12/03 01:37:28;;;;;;;2.10;1.20;;;0.50;99.90;;;;;;5034822;28;20031;-80
2021/12/03 01:39:54;;;;;;;2.15;1.00;;;0.50;99.90;;;;;;5036319;28;20025;-80
2021/12/03 01:42:20;;;;;;;1.92;1.05;;;0.50;99.90;;;;;;5034765;28;20022;-80
2021/12/03 01:44:46;;;;;;;2.10;1.10;;;0.50;99.90;;;;;;5036436;28;20025;-80
2021/12/03 01:47:12;;;;;;;2.53;1.13;;;0.50;99.90;;;;;;5034852;28;20029;-80
2021/12/03 01:49:38;;;;;;;2.15;1.30;;;0.50;99.90;;;;;;5036239;28;20025;-80
2021/12/03 01:52:04;;;;;;;2.47;1.10;;;0.50;99.90;;;;;;5036258;28;20044;-80
2021/12/03 01:54:29;;;;;;;4.10;2.30;;;0.50;99.90;;;;;;5036249;28;20121;-80
2021/12/03 01:56:55;;;;;;;4.28;2.30;;;0.50;99.90;;;;;;5036014;28;20100;-80
2021/12/03 01:59:21;;;;;;;3.22;2.03;;;0.50;99.90;;;;;;5035987;28;20028;-80
2021/12/03 02:01:47;;;;;;;4.95;2.80;;;0.40;99.90;;;;;;5034575;28;20025;-81
2021/12/03 02:04:12;;;;;;;5.13;3.00;;;0.40;99.90;;;;;;5034781;28;20056;-80
2021/12/03 02:06:38;;;;;;;3.67;1.98;;;0.40;99.90;;;;;;5036090;28;20026;-80
2021/12/03 02:09:05;;;;;;;1.90;1.10;;;0.40;99.90;;;;;;5036491;28;20104;-81
2021/12/03 02:11:32;;;;;;;2.28;1.20;;;0.40;99.90;;;;;;5036076;28;20029;-80
2021/12/03 02:13:58;;;;;;;2.75;1.20;;;0.40;99.90;;;;;;5036152;28;20026;-80
2021/12/03 02:16:23;;;;;;;2.60;1.33;;;0.40;99.90;;;;;;5034765;28;20026;-81
2021/12/03 02:18:50;;;;;;;1.92;1.13;;;0.40;99.90;;;;;;5035894;28;20530;-80
2021/12/03 02:21:20;;;;;;;1.70;0.90;;;0.40;99.90;;;;;;5034901;28;20139;-80
2021/12/03 02:23:46;;;;;;;3.30;1.13;;;0.30;99.90;;;;;;5034443;28;20026;-83
2021/12/03 02:26:13;;;;;;;1.25;0.68;;;0.30;99.90;;;;;;5034995;28;20402;-83
2021/12/03 02:28:44;;;;;;;1.80;0.75;;;0.40;99.90;;;;;;5037243;28;20069;-83
2021/12/03 02:31:13;;;;;;;1.73;0.98;;;0.40;99.90;;;;;;5035609;28;20022;-83
2021/12/03 02:33:39;;;;;;;1.20;0.73;;;0.40;99.90;;;;;;5037063;28;20426;-83
2021/12/03 02:36:06;;;;;;;2.58;1.05;;;0.30;99.90;;;;;;5034188;28;20037;-84
2021/12/03 02:38:32;;;;;;;3.25;1.25;;;0.20;99.90;;;;;;5036059;28;20037;-83
2021/12/03 02:40:58;;;;;;;2.10;1.00;;;0.20;99.90;;;;;;5036101;28;20448;-83
2021/12/03 02:43:25;;;;;;;2.00;1.00;;;0.20;99.90;;;;;;5034099;28;20432;-83
2021/12/03 02:45:52;;;;;;;2.50;1.10;;;0.20;99.90;;;;;;5034090;28;20024;-83
2021/12/03 02:48:19;;;;;;;28.40;10.90;;;0.20;99.90;;;;;;5033820;28;20022;-83
2021/12/03 02:50:45;;;;;;;18.15;7.20;;;0.10;99.90;;;;;;5034854;28;20535;-84
2021/12/03 02:53:10;;;;;;;6.28;2.75;;;0.00;99.90;;;;;;5035118;28;20029;-83
2021/12/03 02:55:36;;;;;;;3.10;1.88;;;0.00;99.90;;;;;;5035139;28;20052;-84
2021/12/03 02:58:03;;;;;;;4.35;1.90;;;0.00;99.90;;;;;;5035572;28;20057;-84
2021/12/03 03:00:30;;;;;;;3.70;1.85;;;0.00;99.90;;;;;;5035066;28;20064;-83
2021/12/03 03:02:57;;;;;;;2.47;1.33;;;0.00;99.90;;;;;;5034561;28;20084;-83
2021/12/03 03:05:25;;;;;;;3.03;1.65;;;0.00;99.90;;;;;;5035579;28;20024;-83
2021/12/03 03:07:51;;;;;;;3.22;1.67;;;0.00;99.90;;;;;;5035129;28;20017;-84
2021/12/03 03:10:22;;;;;;;2.65;1.50;;;0.00;99.90;;;;;;5033421;28;20444;-83
2021/12/03 03:12:48;;;;;;;2.80;1.70;;;0.00;99.90;;;;;;5034207;28;20032;-83
2021/12/03 03:15:16;;;;;;;4.93;2.30;;;0.00;99.90;;;;;;5035194;28;20037;-83
2021/12/03 03:17:41;;;;;;;4.45;2.00;;;0.00;99.90;;;;;;5034882;28;20021;-83
2021/12/03 03:20:09;;;;;;;3.65;2.00;;;0.00;99.90;;;;;;5033496;28;20030;-83
2021/12/03 03:22:37;;;;;;;4.35;2.08;;;0.00;99.90;;;;;;5033483;28;20117;-83
2021/12/03 03:25:04;;;;;;;3.50;2.13;;;0.00;99.90;;;;;;5033513;28;20032;-83
2021/12/03 03:27:30;;;;;;;3.80;1.65;;;0.00;99.90;;;;;;5034316;28;20033;-83
2021/12/03 03:29:57;;;;;;;4.00;2.05;;;0.00;99.90;;;;;;5033946;28;20076;-83
2021/12/03 03:32:25;;;;;;;5.05;2.10;;;0.10;99.90;;;;;;5033183;28;20029;-83
2021/12/03 03:34:51;;;;;;;3.13;1.70;;;0.10;99.90;;;;;;5034853;28;20082;-83
2021/12/03 03:37:19;;;;;;;4.28;1.88;;;0.10;99.90;;;;;;5032936;28;20485;-83
2021/12/03 03:39:45;;;;;;;4.55;2.50;;;0.00;99.90;;;;;;5034448;28;20033;-83
2021/12/03 03:42:11;;;;;;;5.00;2.90;;;0.00;99.90;;;;;;5033833;28;20038;-82
2021/12/03 03:44:37;;;;;;;3.95;2.70;;;0.00;99.90;;;;;;5034085;28;20470;-82
2021/12/03 03:47:05;;;;;;;4.18;2.70;;;0.10;99.90;;;;;;5034238;28;20125;-82
2021/12/03 03:49:31;;;;;;;4.13;2.38;;;0.10;99.90;;;;;;5034362;28;20014;-82
2021/12/03 03:51:59;;;;;;;3.33;2.10;;;0.10;99.90;;;;;;5033159;28;20021;-83
2021/12/03 03:54:25;;;;;;;5.47;3.15;;;0.10;99.90;;;;;;5034319;28;20022;-82
2021/12/03 03:56:51;;;;;;;4.38;2.30;;;0.10;99.90;;;;;;5033647;28;20108;-82
2021/12/03 03:59:17;;;;;;;5.20;2.55;;;0.20;99.90;;;;;;5034493;28;20053;-82
2021/12/03 04:01:44;;;;;;;3.25;2.03;;;0.10;99.90;;;;;;5034156;28;20028;-82
2021/12/03 04:04:11;;;;;;;5.22;2.72;;;0.10;99.90;;;;;;5032731;28;20025;-82
2021/12/03 04:06:37;;;;;;;4.90;2.60;;;0.10;99.90;;;;;;5032815;28;20338;-82
2021/12/03 04:09:04;;;;;;;5.47;2.30;;;0.00;99.90;;;;;;5033971;28;20028;-82
2021/12/03 04:11:29;;;;;;;5.38;2.70;;;0.00;99.90;;;;;;5032546;28;20457;-82
2021/12/03 04:13:55;;;;;;;4.13;2.30;;;0.00;99.90;;;;;;5033763;28;20485;-82
2021/12/03 04:16:21;;;;;;;3.75;2.17;;;0.00;99.90;;;;;;5034255;28;20057;-83
2021/12/03 04:18:47;;;;;;;4.13;2.47;;;0.00;99.90;;;;;;5033394;28;20108;-82
2021/12/03 04:21:14;;;;;;;5.82;2.70;;;0.10;99.90;;;;;;5032167;28;20040;-82
2021/12/03 04:23:39;;;;;;;5.28;2.40;;;0.00;99.90;;;;;;5032019;28;20037;-82
2021/12/03 04:26:07;;;;;;;4.32;2.58;;;0.00;99.90;;;;;;5032012;28;20159;-83
2021/12/03 04:28:33;;;;;;;3.97;2.38;;;0.00;99.90;;;;;;5032594;28;20022;-82
2021/12/03 04:30:59;;;;;;;4.30;2.67;;;0.00;99.90;;;;;;5032656;28;20033;-82
2021/12/03 04:33:25;;;;;;;4.93;2.60;;;0.00;99.90;;;;;;5033078;28;20048;-82
2021/12/03 04:35:51;;;;;;;4.38;2.75;;;0.00;99.90;;;;;;5032090;28;20489;-83
2021/12/03 04:38:17;;;;;;;5.45;2.95;;;0.00;99.90;;;;;;5031547;28;20505;-82
2021/12/03 04:40:43;;;;;;;4.25;2.63;;;0.00;99.90;;;;;;5031895;28;20028;-83
2021/12/03 04:43:09;;;;;;;3.88;2.42;;;0.00;99.90;;;;;;5033114;28;20390;-82
2021/12/03 04:45:35;;;;;;;4.68;2.70;;;0.00;99.90;;;;;;5033132;28;20025;-82
2021/12/03 04:48:03;;;;;;;4.03;2.65;;;0.00;99.90;;;;;;5033716;28;20540;-82
2021/12/03 04:50:32;;;;;;;6.05;3.00;;;0.00;99.90;;;;;;5031822;28;20040;-82
2021/12/03 04:52:58;;;;;;;5.85;3.47;;;0.00;99.90;;;;;;5032988;28;20029;-82
2021/12/03 04:55:26;;;;;;;9.32;4.28;;;0.00;99.90;;;;;;5032155;28;20053;-82
2021/12/03 04:57:53;;;;;;;5.97;3.78;;;0.00;99.90;;;;;;5033483;28;20032;-82
2021/12/03 05:00:29;;;;;;;8.13;4.45;;;0.00;99.90;;;;;;5036890;28;20036;-82
2021/12/03 05:02:55;;;;;;;6.18;4.03;;;0.00;99.90;;;;;;5036708;28;20017;-82
2021/12/03 05:05:24;;;;;;;6.75;4.00;;;-0.10;99.90;;;;;;5036157;28;20029;-82
2021/12/03 05:08:01;;;;;;;7.65;4.05;;;-0.10;99.90;;;;;;5035655;28;20426;-82
2021/12/03 05:10:33;;;;;;;7.18;4.13;;;-0.10;99.90;;;;;;5036975;28;20028;-82
2021/12/03 05:13:29;;;;;;;7.10;3.97;;;-0.20;99.90;;;;;;5036655;28;20025;-83
2021/12/03 05:15:56;;;;;;;6.97;4.20;;;-0.20;99.90;;;;;;5020601;28;20473;-83
2021/12/03 05:18:24;;;;;;;8.75;4.78;;;-0.20;99.90;;;;;;5036509;28;20037;-82
2021/12/03 05:20:52;;;;;;;7.57;5.13;;;-0.20;99.90;;;;;;5037148;28;20021;-82
2021/12/03 05:23:20;;;;;;;11.60;6.70;;;-0.20;99.90;;;;;;5035093;28;20025;-82
2021/12/03 05:25:47;;;;;;;11.00;5.63;;;-0.30;99.90;;;;;;5036524;28;20021;-82
2021/12/03 05:28:14;;;;;;;8.70;4.88;;;-0.30;99.90;;;;;;5036345;28;20029;-82
2021/12/03 05:30:40;;;;;;;9.85;5.60;;;-0.30;99.90;;;;;;5035041;28;20084;-82
2021/12/03 05:33:07;;;;;;;8.15;4.80;;;-0.40;99.90;;;;;;5035154;28;20655;-82
2021/12/03 05:35:33;;;;;;;8.93;5.13;;;-0.40;99.90;;;;;;5036453;28;20033;-82
2021/12/03 05:37:59;;;;;;;8.95;4.95;;;-0.40;99.90;;;;;;5035020;28;20037;-82
2021/12/03 05:40:25;;;;;;;7.30;4.65;;;-0.40;99.90;;;;;;5034797;28;20036;-82
2021/12/03 05:42:52;;;;;;;7.70;4.47;;;-0.40;99.90;;;;;;5036124;28;20435;-82
2021/12/03 05:45:28;;;;;;;5.75;3.90;;;-0.30;99.90;;;;;;5035849;28;20022;-82
2021/12/03 05:47:55;;;;;;;5.78;3.92;;;-0.30;99.90;;;;;;5034854;28;20516;-82
2021/12/03 05:50:21;;;;;;;5.70;3.80;;;-0.30;99.90;;;;;;5036418;28;20025;-82
2021/12/03 05:52:49;;;;;;;6.28;3.88;;;-0.30;99.90;;;;;;5034626;28;20034;-82
2021/12/03 05:55:15;;;;;;;7.30;4.35;;;-0.30;99.90;;;;;;5035856;28;20022;-83
2021/12/03 05:57:42;;;;;;;6.75;3.63;;;-0.40;99.90;;;;;;5035636;28;20037;-83
2021/12/03 06:00:13;;;;;;;6.07;3.53;;;-0.30;99.90;;;;;;5034919;28;20083;-83
2021/12/03 06:02:39;;;;;;;6.65;3.53;;;-0.30;99.90;;;;;;5034282;28;20144;-82
2021/12/03 06:05:06;;;;;;;6.57;3.75;;;-0.30;99.90;;;;;;5034748;28;20093;-82
2021/12/03 06:07:32;;;;;;;7.80;4.30;;;-0.30;99.90;;;;;;5034691;28;20026;-82
2021/12/03 06:09:58;;;;;;;10.85;5.45;;;-0.20;99.90;;;;;;5035474;28;20029;-82
2021/12/03 06:12:24;;;;;;;10.88;6.50;;;-0.20;99.90;;;;;;5035270;28;20083;-82
2021/12/03 06:14:49;;;;;;;7.63;4.32;;;-0.20;99.90;;;;;;5034184;28;20029;-82
2021/12/03 06:17:15;;;;;;;8.25;4.55;;;-0.20;99.90;;;;;;5036138;28;20025;-82
2021/12/03 06:19:42;;;;;;;6.50;4.20;;;-0.30;99.90;;;;;;5034064;28;20022;-82
2021/12/03 06:22:08;;;;;;;9.07;3.88;;;-0.20;99.90;;;;;;5034166;28;20447;-82
2021/12/03 06:24:36;;;;;;;7.40;3.80;;;-0.20;99.90;;;;;;5035396;28;20033;-81
2021/12/03 06:27:02;;;;;;;7.18;3.88;;;-0.20;99.90;;;;;;5035547;28;20145;-82
2021/12/03 06:29:28;;;;;;;7.57;4.18;;;-0.20;99.90;;;;;;5035117;28;20108;-82
2021/12/03 06:31:53;;;;;;;8.68;4.57;;;-0.20;99.90;;;;;;5033729;28;20026;-82
2021/12/03 06:34:19;;;;;;;7.97;4.53;;;-0.10;99.90;;;;;;5033776;28;20516;-82
2021/12/03 06:36:45;;;;;;;8.95;4.63;;;-0.10;99.90;;;;;;5033650;28;20025;-82
2021/12/03 06:39:10;;;;;;;9.10;5.10;;;-0.10;99.90;;;;;;5034547;28;20061;-82
2021/12/03 06:41:36;;;;;;;10.35;5.90;;;-0.10;99.90;;;;;;5033885;28;20095;-82
2021/12/03 06:44:04;;;;;;;12.52;6.25;;;-0.10;99.90;;;;;;5035049;28;20060;-82
2021/12/03 06:46:30;;;;;;;13.93;7.47;;;-0.10;99.90;;;;;;5033496;28;20025;-82
2021/12/03 06:48:56;;;;;;;13.98;7.30;;;-0.10;99.90;;;;;;5035178;28;20355;-82
2021/12/03 06:51:22;;;;;;;15.48;8.20;;;-0.10;99.90;;;;;;5034234;28;20021;-82
2021/12/03 06:54:03;;;;;;;16.83;8.32;;;-0.10;99.90;;;;;;5033538;28;20110;-83
2021/12/03 06:56:48;;;;;;;17.60;9.27;;;-0.10;99.90;;;;;;5035011;28;20028;-83
2021/12/03 06:59:15;;;;;;;15.55;8.57;;;-0.10;99.90;;;;;;5033360;28;20564;-82
2021/12/03 07:01:41;;;;;;;21.13;9.98;;;-0.20;99.90;;;;;;5034588;28;20052;-82
2021/12/03 07:04:07;;;;;;;19.52;9.80;;;-0.20;99.90;;;;;;5034562;28;20029;-83
2021/12/03 07:06:33;;;;;;;12.63;6.88;;;-0.20;99.90;;;;;;5033030;28;20044;-83
2021/12/03 07:08:59;;;;;;;12.95;7.07;;;-0.20;99.90;;;;;;5034446;28;20477;-82
2021/12/03 07:11:25;;;;;;;11.57;6.78;;;-0.30;99.90;;;;;;5034225;28;20022;-82
2021/12/03 07:13:50;;;;;;;12.07;7.13;;;-0.40;99.90;;;;;;5034320;28;20026;-83
2021/12/03 07:16:16;;;;;;;13.48;6.60;;;-0.40;99.90;;;;;;5034511;28;20083;-83
2021/12/03 07:18:43;;;;;;;12.40;6.65;;;-0.40;99.90;;;;;;5032828;28;20030;-82
2021/12/03 07:21:09;;;;;;;14.23;7.50;;;-0.40;99.90;;;;;;5032177;28;20026;-82
2021/12/03 07:23:35;;;;;;;13.25;7.60;;;-0.40;99.90;;;;;;5034099;28;20030;-83
2021/12/03 07:26:02;;;;;;;12.02;7.38;;;-0.40;99.90;;;;;;5032937;28;20022;-83
2021/12/03 07:28:29;;;;;;;13.90;8.50;;;-0.40;99.90;;;;;;5032770;28;20025;-83
2021/12/03 07:30:55;;;;;;;19.30;10.70;;;-0.40;99.90;;;;;;5032743;28;20031;-83
2021/12/03 07:33:21;;;;;;;15.68;9.60;;;-0.40;99.90;;;;;;5032633;28;20120;-83
2021/12/03 07:35:47;;;;;;;16.85;9.30;;;-0.40;99.90;;;;;;5034200;28;20032;-83
2021/12/03 07:38:15;;;;;;;17.65;9.45;;;-0.30;99.90;;;;;;5032739;28;20037;-83
2021/12/03 07:40:42;;;;;;;18.60;9.63;;;-0.30;99.90;;;;;;5032585;28;20026;-82
2021/12/03 07:43:08;;;;;;;14.98;9.20;;;-0.20;99.90;;;;;;5033676;28;20025;-82
2021/12/03 07:45:34;;;;;;;17.40;9.65;;;-0.20;99.90;;;;;;5033793;28;20429;-82
2021/12/03 07:48:00;;;;;;;27.27;15.32;;;-0.20;99.90;;;;;;5033756;28;20056;-82
2021/12/03 07:50:26;;;;;;;25.70;13.30;;;-0.10;99.90;;;;;;5033674;28;20033;-82
2021/12/03 07:52:52;;;;;;;18.25;10.68;;;-0.10;99.90;;;;;;5033594;28;20025;-82
2021/12/03 07:55:17;;;;;;;23.25;10.73;;;-0.10;99.90;;;;;;5033751;28;20529;-83
2021/12/03 07:57:43;;;;;;;18.98;11.45;;;-0.10;99.90;;;;;;5033538;28;20060;-82
2021/12/03 08:00:10;;;;;;;19.25;10.52;;;-0.10;99.90;;;;;;5033772;28;20033;-82
2021/12/03 08:02:35;;;;;;;19.80;10.90;;;-0.20;99.90;;;;;;5033881;28;20382;-82
2021/12/03 08:05:01;;;;;;;20.55;12.18;;;-0.20;99.90;;;;;;5034191;28;20167;-83
2021/12/03 08:07:27;;;;;;;20.35;10.82;;;-0.20;99.90;;;;;;5033757;28;20048;-83
2021/12/03 08:09:53;;;;;;;14.57;9.07;;;-0.20;99.90;;;;;;5033881;28;20048;-84
2021/12/03 08:12:19;;;;;;;16.10;9.30;;;-0.20;99.90;;;;;;5032231;28;20504;-83
2021/12/03 08:14:44;;;;;;;15.68;8.43;;;-0.20;99.90;;;;;;5032436;28;20056;-83
2021/12/03 08:17:10;;;;;;;16.40;7.75;;;-0.20;99.90;;;;;;5034003;28;20048;-84
2021/12/03 08:19:36;;;;;;;15.25;7.28;;;-0.20;99.90;;;;;;5033309;28;20080;-83
2021/12/03 08:22:03;;;;;;;10.73;4.60;;;-0.10;99.90;;;;;;5033997;28;20469;-82
2021/12/03 08:24:29;;;;;;;9.40;3.90;;;-0.10;99.90;;;;;;5033604;28;20575;-82
2021/12/03 08:26:55;;;;;;;4.25;3.10;;;0.00;99.90;;;;;;5033294;28;20030;-82
2021/12/03 08:29:20;;;;;;;5.32;2.70;;;-0.10;99.90;;;;;;5033314;28;20071;-82
2021/12/03 08:31:46;;;;;;;5.07;2.65;;;-0.10;99.90;;;;;;5033705;28;20032;-82
2021/12/03 08:34:12;;;;;;;6.90;3.13;;;-0.10;99.90;;;;;;5035801;28;20049;-82
2021/12/03 08:36:37;;;;;;;5.20;2.00;;;-0.10;99.90;;;;;;5035892;28;20093;-83
2021/12/03 08:39:04;;;;;;;6.07;2.28;;;-0.10;99.90;;;;;;5036747;28;20059;-81
2021/12/03 08:41:30;;;;;;;3.70;2.20;;;-0.10;99.90;;;;;;5035896;28;20041;-82
2021/12/03 08:43:56;;;;;;;5.75;2.90;;;-0.20;99.90;;;;;;5035758;28;20116;-83
2021/12/03 08:46:29;;;;;;;12.20;6.10;;;-0.20;99.90;;;;;;5037222;28;20070;-83
2021/12/03 08:49:04;;;;;;;8.77;4.60;;;-0.10;99.90;;;;;;5035632;28;20046;-84
2021/12/03 08:57:06;;;;;;;6.55;3.17;;;0.20;99.90;;;;;;5037371;28;20040;-84
2021/12/03 08:59:32;;;;;;;5.95;3.10;;;0.40;99.90;;;;;;5036620;28;20025;-84
2021/12/03 09:01:57;;;;;;;5.40;2.50;;;0.60;99.90;;;;;;5035508;28;20027;-83
2021/12/03 09:04:23;;;;;;;5.10;2.70;;;0.80;99.90;;;;;;5035265;28;20029;-83
2021/12/03 09:06:49;;;;;;;4.22;2.38;;;0.90;99.90;;;;;;5035440;28;20033;-83
2021/12/03 09:09:15;;;;;;;5.78;2.47;;;0.90;99.90;;;;;;5035307;28;20030;-84
2021/12/03 09:11:41;;;;;;;4.95;2.72;;;0.90;99.90;;;;;;5035228;28;20536;-83
2021/12/03 09:14:16;;;;;;;7.38;3.15;;;0.90;99.90;;;;;;5035126;28;20065;-82
2021/12/03 09:16:44;;;;;;;6.43;3.95;;;1.00;99.90;;;;;;5016955;28;20033;-83
2021/12/03 09:19:18;;;;;;;21.63;4.45;;;0.90;99.90;;;;;;5016752;28;20060;-84
2021/12/03 09:21:45;;;;;;;7.70;4.05;;;0.90;99.90;;;;;;5015395;28;20026;-83
2021/12/03 09:24:13;;;;;;;6.63;4.30;;;0.90;99.90;;;;;;5016610;28;20063;-83
2021/12/03 09:26:42;;;;;;;5.40;3.05;;;0.80;99.90;;;;;;5016202;28;20033;-84
2021/12/03 09:29:13;;;;;;;4.82;2.55;;;0.80;99.90;;;;;;5024974;28;20017;-83
2021/12/03 09:31:44;;;;;;;5.43;2.85;;;0.80;99.90;;;;;;5036697;28;20026;-83
2021/12/03 09:34:11;;;;;;;5.28;3.90;;;0.90;99.90;;;;;;5036200;28;20033;-83
2021/12/03 09:36:41;;;;;;;7.35;3.40;;;0.90;99.90;;;;;;5034842;28;20385;-84
2021/12/03 09:39:09;;;;;;;7.50;4.65;;;0.90;99.90;;;;;;5035919;28;20029;-86
2021/12/03 09:41:35;;;;;;;3.85;2.80;;;0.90;99.90;;;;;;5034404;28;20051;-83
2021/12/03 09:44:01;;;;;;;5.32;2.30;;;1.00;99.90;;;;;;5033889;28;20024;-84
2021/12/03 09:46:27;;;;;;;7.57;2.33;;;1.10;99.90;;;;;;5034738;28;20021;-84
2021/12/03 09:51:45;;;;;;;4.15;2.53;;;1.20;99.90;;;;;;5035643;28;20480;-83
2021/12/03 09:56:46;;;;;;;7.00;3.60;;;1.30;99.90;;;;;;5035839;28;20049;-83
2021/12/03 10:12:39;;;;;;;4.75;2.60;;;1.20;99.90;;;;;;5035925;28;20028;-83
2021/12/03 10:15:59;;;;;;;6.07;3.10;;;1.20;99.90;;;;;;5035460;28;20017;-83
2021/12/03 10:18:04;;;;;;;;;;;1.10;99.90;;;;;;5025105;28;20026;-83
2021/12/03 10:34:27;;;;;;;5.22;3.10;;;1.70;99.90;;;;;;5035300;28;20523;-82
2021/12/03 10:37:11;;;;;;;5.78;2.72;;;1.80;99.90;;;;;;5033770;28;20033;-84
2021/12/03 10:39:45;;;;;;;5.90;2.92;;;1.80;99.90;;;;;;5033929;28;20409;-84
2021/12/03 10:42:27;;;;;;;17.33;12.18;;;1.80;99.90;;;;;;5034721;28;20095;-83
2021/12/03 10:56:06;;;;;;;6.03;3.90;;;1.60;99.90;;;;;;5039059;28;20034;-83
2021/12/03 10:59:00;;;;;;;4.20;2.95;;;1.60;99.90;;;;;;5038454;28;20373;-83
2021/12/03 11:28:46;;;;;;;4.85;2.70;;;1.20;99.90;;;;;;5034737;28;20095;-83
2021/12/03 11:34:48;;;;;;;6.18;3.92;;;1.30;99.90;;;;;;5034260;28;20030;-82
2021/12/03 14:14:17;;;;;;;3.85;2.63;;;0.60;99.90;;;;;;5002131;28;20026;-84
2021/12/03 14:56:44;;;;;;;16.08;8.10;;;0.10;99.90;;;;;;5039960;28;20128;-80
2021/12/03 14:59:20;;;;;;;12.45;7.18;;;0.10;99.90;;;;;;5039464;28;20029;-80
2021/12/03 15:01:58;;;;;;;12.35;7.10;;;0.00;99.90;;;;;;5040503;28;20026;-81
2021/12/03 15:07:16;;;;;;;14.00;7.90;;;-0.10;99.90;;;;;;5040504;28;20535;-80
2021/12/03 15:09:45;;;;;;;14.98;8.15;;;-0.10;99.90;;;;;;5039769;28;20032;-81
2021/12/03 15:32:43;;;;;;;22.13;10.52;;;-0.40;99.90;;;;;;5039314;28;20032;-83
2021/12/03 16:04:46;;;;;;;12.52;7.47;;;-1.30;99.90;;;;;;5037501;28;20029;-81
2021/12/03 16:13:19;;;;;;;18.00;9.02;;;-1.40;99.90;;;;;;5037097;28;20017;-82
2021/12/03 16:26:21;;;;;;;16.90;8.48;;;-1.60;99.90;;;;;;5025411;28;20057;-83
2021/12/03 16:48:17;;;;;;;28.90;12.98;;;-2.30;99.90;;;;;;5034785;28;20032;-84
2021/12/03 16:50:57;;;;;;;32.35;16.85;;;-2.30;99.90;;;;;;5034314;28;20029;-84
2021/12/03 16:53:27;;;;;;;19.63;10.98;;;-2.30;99.90;;;;;;5032904;28;20037;-84
2021/12/03 16:56:35;;;;;;;20.50;9.07;;;-2.30;99.90;;;;;;5036105;28;20477;-84
2021/12/03 16:58:43;;;;;;;10.85;5.63;;;-2.40;99.90;;;;;;5035152;28;20034;-84
2021/12/03 17:04:02;;;;;;;7.88;3.83;;;-2.50;99.90;;;;;;5037076;28;20022;-84
2021/12/03 17:12:08;;;;;;;7.70;3.83;;;-2.50;99.90;;;;;;5038835;28;20017;-84
2021/12/03 17:18:06;;;;;;;28.33;11.45;;;-2.50;99.90;;;;;;5038113;28;19928;-84
2021/12/03 17:49:30;;;;;;;21.70;12.75;;;-2.90;99.90;;;;;;5036473;28;20022;-82
2021/12/03 17:52:10;;;;;;;16.58;9.30;;;-3.00;99.90;;;;;;5034733;28;20037;-82
2021/12/03 17:57:33;;;;;;;13.57;6.93;;;-3.00;99.90;;;;;;5036629;28;20033;-82
2021/12/03 18:00:04;;;;;;;11.55;6.10;;;-3.00;99.90;;;;;;5034646;28;20426;-82
2021/12/03 18:03:06;;;;;;;13.18;6.68;;;-3.10;99.90;;;;;;5034421;28;20037;-82
2021/12/03 18:05:53;;;;;;;11.77;6.50;;;-3.10;99.90;;;;;;5032396;28;20025;-82
2021/12/03 18:08:22;;;;;;;18.02;10.05;;;-3.20;99.90;;;;;;5035749;28;20030;-83
2021/12/03 18:54:02;;;;;;;14.60;7.85;;;-3.50;99.90;;;;;;5015913;28;20041;-83
2021/12/03 18:59:12;;;;;;;19.35;9.80;;;-3.40;99.90;;;;;;5015954;28;20092;-84
2021/12/03 19:01:38;;;;;;;17.20;8.65;;;-3.40;99.90;;;;;;5014291;28;20120;-84
2021/12/03 19:04:20;;;;;;;17.83;8.68;;;-3.40;99.90;;;;;;5014426;28;20114;-84
2021/12/03 19:07:00;;;;;;;17.65;8.85;;;-3.40;99.90;;;;;;5014207;28;20076;-84
2021/12/03 19:09:28;;;;;;;17.23;8.77;;;-3.40;99.90;;;;;;5014216;28;20041;-84
2021/12/03 19:12:08;;;;;;;23.08;11.82;;;-3.40;99.90;;;;;;5015231;28;20022;-84
2021/12/03 19:14:36;;;;;;;23.88;12.85;;;-3.40;99.90;;;;;;5016093;28;20409;-84
2021/12/03 19:17:04;;;;;;;30.23;14.57;;;-3.30;99.90;;;;;;5016035;28;20374;-85
2021/12/03 19:19:30;;;;;;;26.30;11.73;;;-3.30;99.90;;;;;;5016450;28;20091;-85
2021/12/03 19:21:59;;;;;;;19.45;9.93;;;-3.30;99.90;;;;;;5016354;28;20026;-85
2021/12/03 19:24:26;;;;;;;21.88;11.13;;;-3.30;99.90;;;;;;5016033;28;20026;-85
2021/12/03 19:26:52;;;;;;;20.40;9.15;;;-3.30;99.90;;;;;;5020059;28;20060;-85
2021/12/03 19:29:20;;;;;;;16.95;7.13;;;-3.30;99.90;;;;;;5033889;28;20061;-85
2021/12/03 19:31:48;;;;;;;10.60;6.05;;;-3.40;99.90;;;;;;5033826;28;20025;-85
2021/12/03 19:34:14;;;;;;;11.00;6.55;;;-3.40;99.90;;;;;;5033533;28;20079;-85
2021/12/03 19:36:43;;;;;;;12.30;6.03;;;-3.50;99.90;;;;;;5033525;28;20037;-85
2021/12/03 19:39:12;;;;;;;14.38;5.53;;;-3.60;99.90;;;;;;5034732;28;20034;-85
2021/12/03 19:44:19;;;;;;;11.05;5.35;;;-3.70;99.90;;;;;;5034131;28;20026;-82
2021/12/03 19:46:47;;;;;;;11.85;6.07;;;-3.70;99.90;;;;;;5034489;28;20041;-83
2021/12/03 19:49:20;;;;;;;9.57;5.43;;;-3.70;99.90;;;;;;5033965;28;20017;-83
2021/12/03 19:51:50;;;;;;;13.27;5.95;;;-3.80;99.90;;;;;;5032822;28;20056;-83
2021/12/03 19:54:17;;;;;;;13.35;6.03;;;-3.80;99.90;;;;;;5033000;28;20552;-82
2021/12/03 19:56:43;;;;;;;10.52;5.93;;;-3.80;99.90;;;;;;5032548;28;20029;-82
2021/12/03 19:59:10;;;;;;;10.40;6.28;;;-3.80;99.90;;;;;;5032558;28;20084;-82
2021/12/03 20:01:36;;;;;;;10.27;5.72;;;-3.80;99.90;;;;;;5034247;28;20033;-83
2021/12/03 20:04:04;;;;;;;11.77;6.60;;;-3.80;99.90;;;;;;5032468;28;20025;-83
2021/12/03 20:06:30;;;;;;;10.18;6.50;;;-3.80;99.90;;;;;;5033072;28;20075;-83
2021/12/03 20:09:00;;;;;;;13.70;6.68;;;-4.00;99.90;;;;;;5032564;28;20105;-84
2021/12/03 20:11:38;;;;;;;38.50;15.18;;;-4.30;99.90;;;;;;5033954;28;20414;-85
2021/12/03 20:14:06;;;;;;;18.88;7.80;;;-4.50;99.90;;;;;;5032796;28;20482;-85
2021/12/03 20:16:44;;;;;;;17.13;7.53;;;-4.60;99.90;;;;;;5033018;28;20026;-84
2021/12/03 20:21:46;;;;;;;17.67;7.53;;;-4.60;99.90;;;;;;5033642;28;20022;-85
2021/12/03 20:24:52;;;;;;;8.60;4.85;;;-4.60;99.90;;;;;;5033658;28;20381;-84
2021/12/03 20:27:19;;;;;;;11.68;4.88;;;-4.60;99.90;;;;;;5034090;28;20022;-84
2021/12/03 20:37:42;;;;;;;25.02;6.93;;;-4.50;99.90;;;;;;5038130;28;20036;-84
2021/12/03 20:40:27;;;;;;;44.50;9.70;;;-4.50;99.90;;;;;;5036471;28;20116;-84
2021/12/03 20:48:11;;;;;;;17.35;5.45;;;-4.80;99.90;;;;;;5038053;28;20033;-84